sensor_id;sensor_type;location;lat;lon;timestamp;pressure;altitude;pressure_sealevel;temperature;humidity
59787;BME280;45672;51.612;5.536;2022-07-23T00:00:39;101679.63;;;17.45;76.52
59787;BME280;45672;51.612;5.536;2022-07-23T00:03:05;101684.75;;;17.40;76.93
59787;BME280;45672;51.612;5.536;2022-07-23T00:05:30;101672.16;;;17.32;77.29
59787;BME280;45672;51.612;5.536;2022-07-23T00:07:55;101681.28;;;17.31;77.35
59787;BME280;45672;51.612;5.536;2022-07-23T00:10:21;101685.16;;;17.29;77.44
59787;BME280;45672;51.612;5.536;2022-07-23T00:12:46;101687.72;;;17.22;77.71
59787;BME280;45672;51.612;5.536;2022-07-23T00:15:11;101689.84;;;17.27;77.76
59787;BME280;45672;51.612;5.536;2022-07-23T00:17:37;101671.75;;;17.20;77.89
59787;BME280;45672;51.612;5.536;2022-07-23T00:20:03;101684.84;;;17.23;78.00
59787;BME280;45672;51.612;5.536;2022-07-23T00:22:28;101680.28;;;17.24;77.81
59787;BME280;45672;51.612;5.536;2022-07-23T00:24:54;101684.19;;;17.21;77.95
59787;BME280;45672;51.612;5.536;2022-07-23T00:27:20;101682.91;;;17.09;78.45
59787;BME280;45672;51.612;5.536;2022-07-23T00:29:45;101673.34;;;17.06;78.82
59787;BME280;45672;51.612;5.536;2022-07-23T00:32:10;101671.38;;;17.00;78.60
59787;BME280;45672;51.612;5.536;2022-07-23T00:34:35;101685.47;;;17.02;79.05
59787;BME280;45672;51.612;5.536;2022-07-23T00:37:01;101678.91;;;17.05;78.91
59787;BME280;45672;51.612;5.536;2022-07-23T00:39:26;101675.22;;;17.06;78.79
59787;BME280;45672;51.612;5.536;2022-07-23T00:41:52;101677.06;;;17.05;78.95
59787;BME280;45672;51.612;5.536;2022-07-23T00:44:22;101673.06;;;17.01;78.80
59787;BME280;45672;51.612;5.536;2022-07-23T00:46:53;101673.75;;;16.95;78.65
59787;BME280;45672;51.612;5.536;2022-07-23T00:49:23;101679.50;;;16.84;79.41
59787;BME280;45672;51.612;5.536;2022-07-23T00:51:49;101678.16;;;16.80;79.45
59787;BME280;45672;51.612;5.536;2022-07-23T00:54:15;101668.63;;;16.77;79.71
59787;BME280;45672;51.612;5.536;2022-07-23T00:56:42;101678.53;;;16.77;79.56
59787;BME280;45672;51.612;5.536;2022-07-23T00:59:08;101671.81;;;16.72;79.68
59787;BME280;45672;51.612;5.536;2022-07-23T01:01:34;101680.75;;;16.73;79.66
59787;BME280;45672;51.612;5.536;2022-07-23T01:03:59;101677.19;;;16.72;79.50
59787;BME280;45672;51.612;5.536;2022-07-23T01:06:24;101680.41;;;16.68;79.68
59787;BME280;45672;51.612;5.536;2022-07-23T01:08:50;101674.88;;;16.69;80.06
59787;BME280;45672;51.612;5.536;2022-07-23T01:11:15;101670.19;;;16.71;79.76
59787;BME280;45672;51.612;5.536;2022-07-23T01:13:42;101667.50;;;16.71;79.71
59787;BME280;45672;51.612;5.536;2022-07-23T01:16:08;101664.63;;;16.73;79.82
59787;BME280;45672;51.612;5.536;2022-07-23T01:18:33;101661.25;;;16.71;79.87
59787;BME280;45672;51.612;5.536;2022-07-23T01:20:58;101660.59;;;16.69;80.04
59787;BME280;45672;51.612;5.536;2022-07-23T01:23:24;101664.47;;;16.66;79.66
59787;BME280;45672;51.612;5.536;2022-07-23T01:25:53;101664.13;;;16.69;79.48
59787;BME280;45672;51.612;5.536;2022-07-23T01:28:18;101658.44;;;16.64;79.63
59787;BME280;45672;51.612;5.536;2022-07-23T01:30:46;101662.97;;;16.64;79.97
59787;BME280;45672;51.612;5.536;2022-07-23T01:33:11;101659.97;;;16.59;79.84
59787;BME280;45672;51.612;5.536;2022-07-23T01:35:36;101659.50;;;16.55;80.11
59787;BME280;45672;51.612;5.536;2022-07-23T01:38:02;101667.91;;;16.52;80.04
59787;BME280;45672;51.612;5.536;2022-07-23T01:40:27;101658.34;;;16.49;80.26
59787;BME280;45672;51.612;5.536;2022-07-23T01:42:53;101656.47;;;16.50;80.04
59787;BME280;45672;51.612;5.536;2022-07-23T01:45:18;101658.00;;;16.44;80.28
59787;BME280;45672;51.612;5.536;2022-07-23T01:47:44;101659.22;;;16.42;80.05
59787;BME280;45672;51.612;5.536;2022-07-23T01:50:09;101657.03;;;16.37;80.06
59787;BME280;45672;51.612;5.536;2022-07-23T01:52:34;101657.88;;;16.37;80.30
59787;BME280;45672;51.612;5.536;2022-07-23T01:55:00;101658.38;;;16.33;80.19
59787;BME280;45672;51.612;5.536;2022-07-23T01:57:25;101652.38;;;16.31;80.66
59787;BME280;45672;51.612;5.536;2022-07-23T01:59:50;101654.88;;;16.32;80.26
59787;BME280;45672;51.612;5.536;2022-07-23T02:02:16;101654.03;;;16.32;80.46
59787;BME280;45672;51.612;5.536;2022-07-23T02:04:41;101653.53;;;16.28;80.17
59787;BME280;45672;51.612;5.536;2022-07-23T02:07:06;101654.72;;;16.26;80.37
59787;BME280;45672;51.612;5.536;2022-07-23T02:09:32;101656.75;;;16.24;80.42
59787;BME280;45672;51.612;5.536;2022-07-23T02:11:57;101652.06;;;16.17;80.28
59787;BME280;45672;51.612;5.536;2022-07-23T02:14:24;101649.22;;;16.19;80.71
59787;BME280;45672;51.612;5.536;2022-07-23T02:16:49;101640.66;;;16.15;80.41
59787;BME280;45672;51.612;5.536;2022-07-23T02:19:14;101647.72;;;16.16;80.42
59787;BME280;45672;51.612;5.536;2022-07-23T02:21:39;101642.69;;;16.13;80.66
59787;BME280;45672;51.612;5.536;2022-07-23T02:24:05;101649.38;;;16.17;80.51
59787;BME280;45672;51.612;5.536;2022-07-23T02:26:30;101649.06;;;16.12;80.92
59787;BME280;45672;51.612;5.536;2022-07-23T02:28:59;101635.63;;;16.12;80.82
59787;BME280;45672;51.612;5.536;2022-07-23T02:31:25;101643.88;;;16.11;80.54
59787;BME280;45672;51.612;5.536;2022-07-23T02:33:50;101639.50;;;16.10;80.78
59787;BME280;45672;51.612;5.536;2022-07-23T02:36:15;101646.03;;;16.07;80.19
59787;BME280;45672;51.612;5.536;2022-07-23T02:38:40;101644.59;;;15.96;81.21
59787;BME280;45672;51.612;5.536;2022-07-23T02:41:06;101646.56;;;15.94;80.74
59787;BME280;45672;51.612;5.536;2022-07-23T02:43:31;101646.22;;;15.97;81.21
59787;BME280;45672;51.612;5.536;2022-07-23T02:45:56;101650.94;;;15.95;81.22
59787;BME280;45672;51.612;5.536;2022-07-23T02:48:22;101651.97;;;15.86;81.30
59787;BME280;45672;51.612;5.536;2022-07-23T02:50:47;101657.00;;;15.81;81.50
59787;BME280;45672;51.612;5.536;2022-07-23T02:53:12;101656.16;;;15.80;81.51
59787;BME280;45672;51.612;5.536;2022-07-23T02:55:37;101656.47;;;15.77;81.59
59787;BME280;45672;51.612;5.536;2022-07-23T02:58:03;101660.84;;;15.70;82.22
59787;BME280;45672;51.612;5.536;2022-07-23T03:00:28;101657.50;;;15.68;82.16
59787;BME280;45672;51.612;5.536;2022-07-23T03:02:53;101657.97;;;15.63;82.15
59787;BME280;45672;51.612;5.536;2022-07-23T03:05:19;101664.38;;;15.62;82.41
59787;BME280;45672;51.612;5.536;2022-07-23T03:07:44;101659.66;;;15.64;82.42
59787;BME280;45672;51.612;5.536;2022-07-23T03:10:09;101657.50;;;15.60;82.20
59787;BME280;45672;51.612;5.536;2022-07-23T03:12:34;101665.38;;;15.61;82.24
59787;BME280;45672;51.612;5.536;2022-07-23T03:15:00;101668.06;;;15.61;82.29
59787;BME280;45672;51.612;5.536;2022-07-23T03:17:25;101673.06;;;15.56;82.66
59787;BME280;45672;51.612;5.536;2022-07-23T03:19:50;101671.59;;;15.54;82.72
59787;BME280;45672;51.612;5.536;2022-07-23T03:22:16;101670.06;;;15.51;82.98
59787;BME280;45672;51.612;5.536;2022-07-23T03:24:41;101666.88;;;15.47;82.81
59787;BME280;45672;51.612;5.536;2022-07-23T03:27:19;101666.22;;;15.45;83.14
59787;BME280;45672;51.612;5.536;2022-07-23T03:29:44;101663.88;;;15.42;82.81
59787;BME280;45672;51.612;5.536;2022-07-23T03:32:10;101671.75;;;15.44;83.74
59787;BME280;45672;51.612;5.536;2022-07-23T03:34:35;101675.59;;;15.41;82.94
59787;BME280;45672;51.612;5.536;2022-07-23T03:37:01;101673.72;;;15.33;83.62
59787;BME280;45672;51.612;5.536;2022-07-23T03:39:26;101672.91;;;15.33;83.85
59787;BME280;45672;51.612;5.536;2022-07-23T03:41:52;101672.41;;;15.29;83.60
59787;BME280;45672;51.612;5.536;2022-07-23T03:44:17;101675.94;;;15.30;84.07
59787;BME280;45672;51.612;5.536;2022-07-23T03:46:42;101673.06;;;15.31;83.59
59787;BME280;45672;51.612;5.536;2022-07-23T03:49:07;101671.22;;;15.32;83.59
59787;BME280;45672;51.612;5.536;2022-07-23T03:51:33;101672.91;;;15.33;84.09
59787;BME280;45672;51.612;5.536;2022-07-23T03:53:58;101676.75;;;15.30;83.97
59787;BME280;45672;51.612;5.536;2022-07-23T03:56:23;101676.25;;;15.27;84.10
59787;BME280;45672;51.612;5.536;2022-07-23T03:58:49;101679.41;;;15.22;84.43
59787;BME280;45672;51.612;5.536;2022-07-23T04:01:14;101673.72;;;15.09;84.55
59787;BME280;45672;51.612;5.536;2022-07-23T04:03:39;101664.47;;;15.03;85.49
59787;BME280;45672;51.612;5.536;2022-07-23T04:06:05;101663.66;;;15.03;85.21
59787;BME280;45672;51.612;5.536;2022-07-23T04:08:31;101674.38;;;15.03;85.83
59787;BME280;45672;51.612;5.536;2022-07-23T04:10:56;101678.88;;;15.02;85.53
59787;BME280;45672;51.612;5.536;2022-07-23T04:13:21;101686.63;;;15.05;85.57
59787;BME280;45672;51.612;5.536;2022-07-23T04:15:47;101681.22;;;14.97;85.83
59787;BME280;45672;51.612;5.536;2022-07-23T04:18:12;101685.72;;;14.96;85.67
59787;BME280;45672;51.612;5.536;2022-07-23T04:20:37;101678.38;;;14.98;85.57
59787;BME280;45672;51.612;5.536;2022-07-23T04:23:03;101684.75;;;15.06;85.79
59787;BME280;45672;51.612;5.536;2022-07-23T04:25:28;101686.94;;;15.10;85.54
59787;BME280;45672;51.612;5.536;2022-07-23T04:27:53;101687.47;;;15.14;85.15
59787;BME280;45672;51.612;5.536;2022-07-23T04:30:19;101686.28;;;15.16;85.51
59787;BME280;45672;51.612;5.536;2022-07-23T04:32:44;101690.81;;;15.16;85.16
59787;BME280;45672;51.612;5.536;2022-07-23T04:35:09;101688.94;;;15.16;85.61
59787;BME280;45672;51.612;5.536;2022-07-23T04:37:35;101697.53;;;15.20;85.49
59787;BME280;45672;51.612;5.536;2022-07-23T04:40:00;101691.81;;;15.23;85.48
59787;BME280;45672;51.612;5.536;2022-07-23T04:42:25;101706.59;;;15.27;85.51
59787;BME280;45672;51.612;5.536;2022-07-23T04:44:50;101701.41;;;15.34;84.92
59787;BME280;45672;51.612;5.536;2022-07-23T04:47:16;101706.59;;;15.36;85.26
59787;BME280;45672;51.612;5.536;2022-07-23T04:49:41;101695.88;;;15.36;85.25
59787;BME280;45672;51.612;5.536;2022-07-23T04:52:06;101700.41;;;15.35;85.38
59787;BME280;45672;51.612;5.536;2022-07-23T04:54:32;101710.28;;;15.34;85.50
59787;BME280;45672;51.612;5.536;2022-07-23T04:56:57;101709.94;;;15.38;85.49
59787;BME280;45672;51.612;5.536;2022-07-23T04:59:22;101719.34;;;15.42;85.44
59787;BME280;45672;51.612;5.536;2022-07-23T05:01:48;101714.31;;;15.47;85.22
59787;BME280;45672;51.612;5.536;2022-07-23T05:04:13;101711.13;;;15.51;84.96
59787;BME280;45672;51.612;5.536;2022-07-23T05:06:38;101705.09;;;15.58;84.97
59787;BME280;45672;51.612;5.536;2022-07-23T05:09:03;101711.31;;;15.66;84.86
59787;BME280;45672;51.612;5.536;2022-07-23T05:11:29;101712.16;;;15.75;84.97
59787;BME280;45672;51.612;5.536;2022-07-23T05:13:54;101721.06;;;15.84;84.70
59787;BME280;45672;51.612;5.536;2022-07-23T05:16:19;101714.19;;;15.90;84.34
59787;BME280;45672;51.612;5.536;2022-07-23T05:18:45;101717.22;;;15.95;84.08
59787;BME280;45672;51.612;5.536;2022-07-23T05:21:10;101717.34;;;16.01;83.79
59787;BME280;45672;51.612;5.536;2022-07-23T05:23:35;101720.38;;;16.07;83.80
59787;BME280;45672;51.612;5.536;2022-07-23T05:26:00;101725.91;;;16.13;83.39
59787;BME280;45672;51.612;5.536;2022-07-23T05:28:26;101727.91;;;16.19;82.96
59787;BME280;45672;51.612;5.536;2022-07-23T05:30:51;101726.22;;;16.27;82.52
59787;BME280;45672;51.612;5.536;2022-07-23T05:33:18;101728.38;;;16.31;82.40
59787;BME280;45672;51.612;5.536;2022-07-23T05:35:44;101736.78;;;16.36;82.28
59787;BME280;45672;51.612;5.536;2022-07-23T05:38:11;101731.41;;;16.45;82.18
59787;BME280;45672;51.612;5.536;2022-07-23T05:40:36;101736.06;;;16.51;81.83
59787;BME280;45672;51.612;5.536;2022-07-23T05:43:01;101734.38;;;16.58;81.73
59787;BME280;45672;51.612;5.536;2022-07-23T05:45:27;101738.72;;;16.67;81.31
59787;BME280;45672;51.612;5.536;2022-07-23T05:47:52;101741.34;;;16.76;81.50
59787;BME280;45672;51.612;5.536;2022-07-23T05:50:17;101736.63;;;16.86;81.17
59787;BME280;45672;51.612;5.536;2022-07-23T05:52:43;101738.09;;;16.97;80.94
59787;BME280;45672;51.612;5.536;2022-07-23T05:55:12;101744.44;;;17.04;80.79
59787;BME280;45672;51.612;5.536;2022-07-23T05:57:38;101748.00;;;17.04;80.36
59787;BME280;45672;51.612;5.536;2022-07-23T06:00:04;101753.34;;;17.13;80.83
59787;BME280;45672;51.612;5.536;2022-07-23T06:02:30;101747.59;;;17.16;80.90
59787;BME280;45672;51.612;5.536;2022-07-23T06:04:56;101747.88;;;17.21;80.36
59787;BME280;45672;51.612;5.536;2022-07-23T06:07:21;101752.25;;;17.22;80.07
59787;BME280;45672;51.612;5.536;2022-07-23T06:09:46;101755.44;;;17.26;80.51
59787;BME280;45672;51.612;5.536;2022-07-23T06:12:14;101763.25;;;17.35;79.59
59787;BME280;45672;51.612;5.536;2022-07-23T06:14:39;101760.13;;;17.55;79.04
59787;BME280;45672;51.612;5.536;2022-07-23T06:17:04;101760.19;;;17.70;77.68
59787;BME280;45672;51.612;5.536;2022-07-23T06:19:29;101762.47;;;17.81;77.58
59787;BME280;45672;51.612;5.536;2022-07-23T06:21:55;101760.19;;;17.93;76.75
59787;BME280;45672;51.612;5.536;2022-07-23T06:24:20;101761.09;;;18.08;76.13
59787;BME280;45672;51.612;5.536;2022-07-23T06:26:45;101758.41;;;18.23;74.66
59787;BME280;45672;51.612;5.536;2022-07-23T06:29:11;101764.38;;;18.34;73.69
59787;BME280;45672;51.612;5.536;2022-07-23T06:31:36;101764.38;;;18.34;73.05
59787;BME280;45672;51.612;5.536;2022-07-23T06:34:01;101773.13;;;18.51;73.17
59787;BME280;45672;51.612;5.536;2022-07-23T06:36:27;101767.44;;;18.75;72.07
59787;BME280;45672;51.612;5.536;2022-07-23T06:38:52;101762.16;;;18.97;70.49
59787;BME280;45672;51.612;5.536;2022-07-23T06:41:26;101766.47;;;19.28;70.24
59787;BME280;45672;51.612;5.536;2022-07-23T06:43:51;101765.22;;;19.67;68.83
59787;BME280;45672;51.612;5.536;2022-07-23T06:46:17;101767.03;;;20.03;66.83
59787;BME280;45672;51.612;5.536;2022-07-23T06:48:42;101781.09;;;20.55;65.58
59787;BME280;45672;51.612;5.536;2022-07-23T06:51:07;101777.69;;;21.23;62.33
59787;BME280;45672;51.612;5.536;2022-07-23T06:53:32;101768.47;;;21.93;60.65
59787;BME280;45672;51.612;5.536;2022-07-23T06:55:58;101773.56;;;22.88;59.41
59787;BME280;45672;51.612;5.536;2022-07-23T06:58:23;101772.91;;;23.77;56.96
59787;BME280;45672;51.612;5.536;2022-07-23T07:00:48;101778.53;;;24.51;52.89
59787;BME280;45672;51.612;5.536;2022-07-23T07:03:14;101783.78;;;24.89;51.42
59787;BME280;45672;51.612;5.536;2022-07-23T07:05:39;101780.81;;;25.40;49.97
59787;BME280;45672;51.612;5.536;2022-07-23T07:08:05;101781.06;;;25.92;48.22
59787;BME280;45672;51.612;5.536;2022-07-23T07:10:31;101776.59;;;26.33;46.50
59787;BME280;45672;51.612;5.536;2022-07-23T07:12:56;101789.53;;;26.50;46.90
59787;BME280;45672;51.612;5.536;2022-07-23T07:15:22;101782.44;;;27.01;45.87
59787;BME280;45672;51.612;5.536;2022-07-23T07:17:47;101784.19;;;27.65;43.46
59787;BME280;45672;51.612;5.536;2022-07-23T07:20:13;101783.13;;;27.83;43.33
59787;BME280;45672;51.612;5.536;2022-07-23T07:22:38;101780.44;;;28.23;41.87
59787;BME280;45672;51.612;5.536;2022-07-23T07:25:04;101781.16;;;28.52;41.10
59787;BME280;45672;51.612;5.536;2022-07-23T07:27:29;101773.78;;;28.97;39.86
59787;BME280;45672;51.612;5.536;2022-07-23T07:29:54;101772.28;;;29.33;38.79
59787;BME280;45672;51.612;5.536;2022-07-23T07:32:20;101774.69;;;29.57;36.90
59787;BME280;45672;51.612;5.536;2022-07-23T07:34:45;101785.13;;;29.60;37.23
59787;BME280;45672;51.612;5.536;2022-07-23T07:37:10;101789.31;;;30.00;37.38
59787;BME280;45672;51.612;5.536;2022-07-23T07:39:35;101794.72;;;30.27;35.81
59787;BME280;45672;51.612;5.536;2022-07-23T07:42:01;101796.28;;;30.51;35.70
59787;BME280;45672;51.612;5.536;2022-07-23T07:44:26;101797.03;;;31.04;33.67
59787;BME280;45672;51.612;5.536;2022-07-23T07:46:51;101803.72;;;31.29;34.20
59787;BME280;45672;51.612;5.536;2022-07-23T07:49:18;101799.88;;;31.45;32.71
59787;BME280;45672;51.612;5.536;2022-07-23T07:51:44;101796.56;;;31.33;33.00
59787;BME280;45672;51.612;5.536;2022-07-23T07:54:10;101791.97;;;31.95;32.14
59787;BME280;45672;51.612;5.536;2022-07-23T07:56:35;101799.28;;;32.46;30.77
59787;BME280;45672;51.612;5.536;2022-07-23T07:59:00;101800.28;;;32.87;29.56
59787;BME280;45672;51.612;5.536;2022-07-23T08:01:26;101798.41;;;33.22;30.14
59787;BME280;45672;51.612;5.536;2022-07-23T08:03:51;101801.38;;;33.36;28.94
59787;BME280;45672;51.612;5.536;2022-07-23T08:06:17;101804.41;;;33.74;28.55
59787;BME280;45672;51.612;5.536;2022-07-23T08:08:42;101807.56;;;33.96;29.13
59787;BME280;45672;51.612;5.536;2022-07-23T08:11:07;101807.78;;;34.53;27.46
59787;BME280;45672;51.612;5.536;2022-07-23T08:13:33;101812.84;;;34.17;27.80
59787;BME280;45672;51.612;5.536;2022-07-23T08:15:58;101810.50;;;34.05;28.55
59787;BME280;45672;51.612;5.536;2022-07-23T08:18:23;101803.72;;;34.70;27.54
59787;BME280;45672;51.612;5.536;2022-07-23T08:20:49;101807.16;;;35.05;26.63
59787;BME280;45672;51.612;5.536;2022-07-23T08:23:14;101811.19;;;34.94;26.25
59787;BME280;45672;51.612;5.536;2022-07-23T08:25:41;101811.56;;;35.06;26.87
59787;BME280;45672;51.612;5.536;2022-07-23T08:28:09;101810.41;;;35.83;25.42
59787;BME280;45672;51.612;5.536;2022-07-23T08:30:35;101822.13;;;35.94;25.32
59787;BME280;45672;51.612;5.536;2022-07-23T08:33:04;101826.03;;;35.93;25.39
59787;BME280;45672;51.612;5.536;2022-07-23T08:35:33;101819.28;;;35.99;25.40
59787;BME280;45672;51.612;5.536;2022-07-23T08:38:02;101828.06;;;36.34;24.72
59787;BME280;45672;51.612;5.536;2022-07-23T08:40:32;101824.66;;;36.37;24.02
59787;BME280;45672;51.612;5.536;2022-07-23T08:42:58;101830.81;;;36.90;23.35
59787;BME280;45672;51.612;5.536;2022-07-23T08:45:25;101832.31;;;36.13;24.13
59787;BME280;45672;51.612;5.536;2022-07-23T08:47:56;101831.56;;;35.41;25.23
59787;BME280;45672;51.612;5.536;2022-07-23T08:50:24;101839.94;;;35.36;25.55
59787;BME280;45672;51.612;5.536;2022-07-23T08:52:51;101834.00;;;35.62;25.44
59787;BME280;45672;51.612;5.536;2022-07-23T08:55:18;101841.41;;;35.09;25.55
59787;BME280;45672;51.612;5.536;2022-07-23T08:57:44;101839.72;;;34.89;25.92
59787;BME280;45672;51.612;5.536;2022-07-23T09:00:10;101845.19;;;35.70;25.50
59787;BME280;45672;51.612;5.536;2022-07-23T09:02:41;101843.06;;;36.89;25.04
59787;BME280;45672;51.612;5.536;2022-07-23T09:05:08;101847.97;;;37.65;22.88
59787;BME280;45672;51.612;5.536;2022-07-23T09:07:33;101842.50;;;37.74;22.80
59787;BME280;45672;51.612;5.536;2022-07-23T09:10:10;101848.13;;;38.37;23.43
59787;BME280;45672;51.612;5.536;2022-07-23T09:12:37;101840.13;;;38.44;21.67
59787;BME280;45672;51.612;5.536;2022-07-23T09:15:07;101833.53;;;37.32;22.47
59787;BME280;45672;51.612;5.536;2022-07-23T09:17:38;101834.19;;;38.28;22.97
59787;BME280;45672;51.612;5.536;2022-07-23T09:20:08;101837.72;;;39.70;23.83
59787;BME280;45672;51.612;5.536;2022-07-23T09:22:34;101831.13;;;39.75;20.77
59787;BME280;45672;51.612;5.536;2022-07-23T09:25:17;101824.41;;;39.85;21.47
59787;BME280;45672;51.612;5.536;2022-07-23T09:27:50;101828.34;;;39.75;21.24
59787;BME280;45672;51.612;5.536;2022-07-23T09:30:18;101821.63;;;39.67;20.49
59787;BME280;45672;51.612;5.536;2022-07-23T09:32:43;101818.06;;;40.14;20.76
59787;BME280;45672;51.612;5.536;2022-07-23T09:35:09;101822.31;;;40.20;19.57
59787;BME280;45672;51.612;5.536;2022-07-23T09:37:34;101820.31;;;39.73;20.31
59787;BME280;45672;51.612;5.536;2022-07-23T09:40:18;101824.66;;;40.48;21.75
59787;BME280;45672;51.612;5.536;2022-07-23T09:42:54;101823.34;;;40.54;21.04
59787;BME280;45672;51.612;5.536;2022-07-23T09:45:20;101823.31;;;40.84;19.40
59787;BME280;45672;51.612;5.536;2022-07-23T09:47:46;101831.78;;;41.39;18.65
59787;BME280;45672;51.612;5.536;2022-07-23T09:50:11;101835.38;;;41.73;18.37
59787;BME280;45672;51.612;5.536;2022-07-23T09:52:44;101838.38;;;41.67;18.94
59787;BME280;45672;51.612;5.536;2022-07-23T09:55:10;101837.69;;;41.70;17.83
59787;BME280;45672;51.612;5.536;2022-07-23T09:57:35;101833.94;;;42.00;17.73
59787;BME280;45672;51.612;5.536;2022-07-23T10:00:05;101840.53;;;41.28;18.62
59787;BME280;45672;51.612;5.536;2022-07-23T10:02:32;101840.53;;;41.28;18.02
59787;BME280;45672;51.612;5.536;2022-07-23T10:04:57;101839.97;;;41.56;17.82
59787;BME280;45672;51.612;5.536;2022-07-23T10:07:25;101840.44;;;41.79;17.02
59787;BME280;45672;51.612;5.536;2022-07-23T10:09:52;101835.47;;;40.79;18.08
59787;BME280;45672;51.612;5.536;2022-07-23T10:12:19;101831.78;;;40.66;18.17
59787;BME280;45672;51.612;5.536;2022-07-23T10:14:51;101830.13;;;39.79;19.60
59787;BME280;45672;51.612;5.536;2022-07-23T10:17:17;101833.91;;;39.48;19.81
59787;BME280;45672;51.612;5.536;2022-07-23T10:19:42;101836.84;;;39.00;19.82
59787;BME280;45672;51.612;5.536;2022-07-23T10:22:12;101834.06;;;39.00;20.20
59787;BME280;45672;51.612;5.536;2022-07-23T10:24:49;101828.31;;;38.87;20.63
59787;BME280;45672;51.612;5.536;2022-07-23T10:36:02;101823.94;;;39.04;21.85
59787;BME280;45672;51.612;5.536;2022-07-23T10:38:37;101828.25;;;40.01;20.84
59787;BME280;45672;51.612;5.536;2022-07-23T10:41:06;101833.66;;;40.15;18.87
59787;BME280;45672;51.612;5.536;2022-07-23T10:43:32;101828.38;;;39.22;19.89
59787;BME280;45672;51.612;5.536;2022-07-23T10:46:25;101826.13;;;37.72;22.18
59787;BME280;45672;51.612;5.536;2022-07-23T10:49:33;101823.28;;;35.41;25.40
59787;BME280;45672;51.612;5.536;2022-07-23T10:54:43;101819.59;;;32.76;28.45
59787;BME280;45672;51.612;5.536;2022-07-23T10:57:10;101816.69;;;32.01;29.89
59787;BME280;45672;51.612;5.536;2022-07-23T11:02:29;101812.94;;;30.97;30.67
59787;BME280;45672;51.612;5.536;2022-07-23T11:04:59;101811.53;;;30.89;30.79
59787;BME280;45672;51.612;5.536;2022-07-23T11:07:25;101814.47;;;30.67;31.50
59787;BME280;45672;51.612;5.536;2022-07-23T11:09:50;101823.59;;;29.65;32.40
59787;BME280;45672;51.612;5.536;2022-07-23T11:17:33;101811.09;;;28.59;34.95
59787;BME280;45672;51.612;5.536;2022-07-23T11:22:39;101807.59;;;29.08;33.53
59787;BME280;45672;51.612;5.536;2022-07-23T11:25:05;101803.59;;;29.15;31.75
59787;BME280;45672;51.612;5.536;2022-07-23T11:27:41;101807.88;;;29.28;32.22
59787;BME280;45672;51.612;5.536;2022-07-23T11:30:08;101811.09;;;29.25;33.42
59787;BME280;45672;51.612;5.536;2022-07-23T11:32:36;101811.94;;;29.53;32.67
59787;BME280;45672;51.612;5.536;2022-07-23T11:35:22;101805.69;;;29.30;32.82
59787;BME280;45672;51.612;5.536;2022-07-23T11:37:48;101801.81;;;28.82;33.42
59787;BME280;45672;51.612;5.536;2022-07-23T11:40:16;101806.09;;;28.16;34.02
59787;BME280;45672;51.612;5.536;2022-07-23T11:42:59;101803.00;;;27.62;35.14
59787;BME280;45672;51.612;5.536;2022-07-23T11:45:30;101800.44;;;27.72;37.11
59787;BME280;45672;51.612;5.536;2022-07-23T11:47:56;101799.88;;;28.04;36.52
59787;BME280;45672;51.612;5.536;2022-07-23T11:50:24;101794.91;;;28.01;34.92
59787;BME280;45672;51.612;5.536;2022-07-23T11:52:51;101793.69;;;28.09;34.86
59787;BME280;45672;51.612;5.536;2022-07-23T11:55:16;101806.47;;;27.91;35.22
59787;BME280;45672;51.612;5.536;2022-07-23T11:57:42;101805.09;;;27.43;36.04
59787;BME280;45672;51.612;5.536;2022-07-23T12:00:09;101804.22;;;27.54;37.52
59787;BME280;45672;51.612;5.536;2022-07-23T12:02:37;101803.81;;;27.62;37.08
59787;BME280;45672;51.612;5.536;2022-07-23T12:05:03;101813.78;;;27.40;37.84
59787;BME280;45672;51.612;5.536;2022-07-23T12:07:40;101802.28;;;27.38;37.75
59787;BME280;45672;51.612;5.536;2022-07-23T12:10:21;101796.50;;;27.22;37.53
59787;BME280;45672;51.612;5.536;2022-07-23T12:12:52;101800.28;;;27.21;37.89
59787;BME280;45672;51.612;5.536;2022-07-23T12:15:24;101796.56;;;27.39;36.54
59787;BME280;45672;51.612;5.536;2022-07-23T12:17:52;101792.22;;;27.55;36.75
59787;BME280;45672;51.612;5.536;2022-07-23T12:20:21;101793.53;;;27.69;37.20
59787;BME280;45672;51.612;5.536;2022-07-23T12:22:51;101792.47;;;27.54;35.95
59787;BME280;45672;51.612;5.536;2022-07-23T12:25:20;101791.13;;;27.56;36.27
59787;BME280;45672;51.612;5.536;2022-07-23T12:27:57;101788.47;;;27.61;36.54
59787;BME280;45672;51.612;5.536;2022-07-23T12:30:24;101792.28;;;27.60;36.55
59787;BME280;45672;51.612;5.536;2022-07-23T12:32:53;101786.88;;;27.48;36.98
59787;BME280;45672;51.612;5.536;2022-07-23T12:35:20;101795.84;;;27.44;37.52
59787;BME280;45672;51.612;5.536;2022-07-23T12:37:47;101790.63;;;27.42;37.86
59787;BME280;45672;51.612;5.536;2022-07-23T12:42:47;101777.19;;;27.29;37.62
59787;BME280;45672;51.612;5.536;2022-07-23T12:45:12;101769.81;;;27.41;38.39
59787;BME280;45672;51.612;5.536;2022-07-23T12:48:02;101767.44;;;27.45;37.68
59787;BME280;45672;51.612;5.536;2022-07-23T12:50:34;101771.81;;;27.46;38.51
59787;BME280;45672;51.612;5.536;2022-07-23T12:55:29;101772.41;;;27.48;37.15
59787;BME280;45672;51.612;5.536;2022-07-23T12:58:03;101761.47;;;27.48;37.02
59787;BME280;45672;51.612;5.536;2022-07-23T13:00:30;101756.50;;;27.45;37.33
59787;BME280;45672;51.612;5.536;2022-07-23T13:02:55;101758.72;;;27.48;34.92
59787;BME280;45672;51.612;5.536;2022-07-23T13:05:20;101759.91;;;27.52;35.93
59787;BME280;45672;51.612;5.536;2022-07-23T13:07:46;101757.59;;;27.61;35.93
59787;BME280;45672;51.612;5.536;2022-07-23T13:10:11;101767.22;;;27.80;35.70
59787;BME280;45672;51.612;5.536;2022-07-23T13:12:37;101768.78;;;27.93;35.48
59787;BME280;45672;51.612;5.536;2022-07-23T13:15:02;101772.75;;;27.85;36.09